Time;durP1;ratioP1;P1;durP2;ratioP2;P2;SDS_P1;SDS_P2;PMS_P1;PMS_P2;Temp;Humidity;BMP_temperature;BMP_pressure;BME280_temperature;BME280_humidity;BME280_pressure;Samples;Min_cycle;Max_cycle;Signal;HPM_P1;HPM_P2
2021/07/14 00:01:33;;;;;;;4.13;2.67;;;20.00;99.90;;;19.92;100.00;99851.69;3287189;22;108309;-87
2021/07/14 00:04:10;;;;;;;4.20;2.88;;;19.50;99.90;;;19.88;100.00;99861.38;3003985;22;106980;-88
2021/07/14 00:06:37;;;;;;;3.22;2.75;;;19.50;99.90;;;19.88;100.00;99848.63;3520212;39;103779;-88
2021/07/14 00:09:07;;;;;;;4.07;2.08;;;19.90;99.90;;;19.89;100.00;99853.00;3534686;39;100848;-87
2021/07/14 00:11:38;;;;;;;4.40;3.28;;;19.50;99.90;;;19.87;100.00;99854.28;3534173;39;100411;-84
2021/07/14 00:14:26;;;;;;;3.97;2.55;;;19.50;99.90;;;19.80;100.00;99870.66;3421988;22;109107;-87
2021/07/14 00:17:13;;;;;;;6.05;3.58;;;19.50;99.90;;;19.74;100.00;99877.00;3535291;39;102161;-84
2021/07/14 00:22:25;;;;;;;8.93;3.83;;;19.40;99.90;;;19.76;100.00;99904.75;3577732;22;107887;-89
2021/07/14 00:24:53;;;;;;;5.65;3.70;;;19.40;99.90;;;19.81;100.00;99907.59;3604568;22;103372;31
2021/07/14 00:27:57;;;;;;;5.50;3.90;;;19.30;99.90;;;19.70;100.00;99901.06;3317106;22;106881;-88
2021/07/14 00:30:36;;;;;;;6.53;3.80;;;19.30;99.90;;;19.61;100.00;99896.16;2896773;22;106832;31
2021/07/14 00:33:42;;;;;;;8.60;3.83;;;19.70;99.90;;;19.51;100.00;99898.56;3004424;22;107653;-88
2021/07/14 00:36:54;;;;;;;6.57;3.78;;;19.30;99.90;;;19.51;100.00;99888.56;3635823;22;106042;-87
2021/07/14 00:39:29;;;;;;;5.07;3.53;;;19.30;99.90;;;19.57;100.00;99900.38;3577028;22;105655;-87
2021/07/14 00:41:57;;;;;;;5.75;3.85;;;20.10;99.90;;;19.49;100.00;99890.66;3284671;22;108407;-88
2021/07/14 00:44:24;;;;;;;5.28;3.50;;;20.10;99.90;;;19.42;100.00;99886.31;3570578;22;106518;-87
2021/07/14 00:46:54;;;;;;;6.00;3.42;;;18.90;99.90;;;19.40;100.00;99894.69;3411168;22;108267;-86
2021/07/14 00:49:23;;;;;;;7.13;3.58;;;19.10;99.90;;;19.46;100.00;99890.25;3576367;22;104530;-87
2021/07/14 00:51:50;;;;;;;5.45;3.50;;;19.10;99.90;;;19.41;100.00;99885.47;3378312;22;105393;-88
2021/07/14 00:54:17;;;;;;;10.32;3.47;;;20.10;99.90;;;19.47;100.00;99889.19;2816406;22;107590;-88
2021/07/14 00:57:24;;;;;;;7.35;3.33;;;20.10;99.90;;;19.45;100.00;99881.28;3519536;22;104987;-82
2021/07/14 01:00:37;;;;;;;5.05;2.97;;;19.10;99.90;;;19.51;100.00;99874.16;3545400;39;101042;-87
2021/07/14 01:03:20;;;;;;;6.32;3.53;;;19.10;99.90;;;19.50;100.00;99886.06;3347074;22;107435;-87
2021/07/14 01:05:55;;;;;;;4.05;2.92;;;19.60;99.90;;;19.52;100.00;99884.78;3604460;22;106888;-84
2021/07/14 01:08:33;;;;;;;2.90;2.70;;;19.10;99.90;;;19.51;100.00;99882.28;3618370;22;105346;-86
2021/07/14 01:11:09;;;;;;;5.05;3.28;;;19.10;99.90;;;19.54;100.00;99884.53;3533551;39;101423;-87
2021/07/14 01:13:45;;;;;;;4.82;3.15;;;19.00;99.90;;;19.54;100.00;99881.81;3525286;39;102566;-84
2021/07/14 01:16:17;;;;;;;4.78;2.78;;;19.10;99.90;;;19.55;100.00;99887.03;3528288;22;104693;-86
2021/07/14 01:18:54;;;;;;;11.18;4.03;;;18.40;99.90;;;19.54;100.00;99879.09;3522604;39;102383;-87
2021/07/14 01:21:29;;;;;;;3.85;2.60;;;19.90;99.90;;;19.51;100.00;99869.56;3524476;22;107332;-87
2021/07/14 01:24:09;;;;;;;8.30;3.15;;;19.00;99.90;;;19.46;100.00;99877.50;3578281;22;102125;-83
2021/07/14 01:27:04;;;;;;;5.57;3.17;;;19.00;99.90;;;19.48;100.00;99878.13;3492987;22;107567;-85
2021/07/14 01:29:34;;;;;;;3.42;2.67;;;19.00;99.90;;;19.49;100.00;99878.97;3524196;22;106623;-85
2021/07/14 01:32:04;;;;;;;4.28;3.10;;;18.90;99.90;;;19.47;100.00;99872.91;3547724;39;101017;-88
2021/07/14 01:34:33;;;;;;;2.97;2.53;;;18.90;99.90;;;19.50;100.00;99877.91;3494486;22;108226;-88
2021/07/14 01:37:07;;;;;;;7.20;3.08;;;19.80;99.90;;;19.44;100.00;99881.50;3519399;22;105782;-86
2021/07/14 01:39:36;;;;;;;5.07;2.92;;;18.90;99.90;;;19.49;100.00;99884.41;3277145;22;106236;-84
2021/07/14 01:42:10;;;;;;;4.65;3.05;;;18.90;99.90;;;19.50;100.00;99878.75;3539599;39;102461;-84
2021/07/14 01:44:39;;;;;;;9.50;2.97;;;18.90;99.90;;;19.49;100.00;99881.69;3432327;22;107341;-86
2021/07/14 01:47:07;;;;;;;5.13;3.20;;;18.90;99.90;;;19.47;100.00;99887.31;3199985;22;107243;-86
2021/07/14 01:49:40;;;;;;;10.35;3.42;;;18.90;99.90;;;19.47;100.00;99881.03;2910283;22;106881;-86
2021/07/14 01:52:47;;;;;;;5.13;2.88;;;18.90;99.90;;;19.43;100.00;99886.09;3601950;22;109480;31
2021/07/14 01:56:03;;;;;;;7.60;3.58;;;18.90;99.90;;;19.41;100.00;99879.25;3228031;22;106843;-84
2021/07/14 01:58:46;;;;;;;6.80;2.47;;;19.90;99.90;;;19.44;100.00;99881.50;3220754;22;110463;-85
2021/07/14 02:01:18;;;;;;;3.38;2.40;;;18.80;99.90;;;19.33;100.00;99878.47;3635745;22;102054;-83
2021/07/14 02:07:58;;;;;;;6.90;3.90;;;18.80;99.90;;;19.21;100.00;99882.16;3167584;22;106451;-89
2021/07/14 02:11:13;;;;;;;5.97;3.60;;;18.80;99.90;;;19.27;100.00;99879.38;3534592;39;102402;-85
2021/07/14 02:14:27;;;;;;;4.90;2.78;;;18.70;99.90;;;19.26;100.00;99874.19;3544308;39;101446;-84
2021/07/14 02:20:21;;;;;;;5.75;2.95;;;18.70;99.90;;;19.23;100.00;99880.06;3442370;22;105416;-86
2021/07/14 02:23:33;;;;;;;3.95;3.03;;;19.80;99.90;;;19.22;100.00;99898.22;3527849;39;101146;-85
2021/07/14 02:26:09;;;;;;;3.45;2.70;;;18.60;99.90;;;19.24;100.00;99904.25;3590243;22;103032;-89
2021/07/14 02:29:18;;;;;;;5.07;3.40;;;18.60;99.90;;;19.28;100.00;99902.75;3408889;22;108094;-84
2021/07/14 02:32:32;;;;;;;6.32;3.22;;;18.60;99.90;;;19.22;100.00;99903.63;3643103;22;108053;-89
2021/07/14 02:35:46;;;;;;;4.90;2.55;;;18.60;99.90;;;19.25;100.00;99918.63;3578278;22;106803;31
2021/07/14 02:39:09;;;;;;;4.18;3.25;;;18.60;99.90;;;19.22;100.00;99911.78;2864473;22;107756;-88
2021/07/14 02:42:32;;;;;;;6.07;2.60;;;18.60;99.90;;;19.19;100.00;99909.50;3543184;39;101850;-87
2021/07/14 02:45:11;;;;;;;4.47;3.08;;;18.60;99.90;;;19.19;100.00;99904.06;3148937;22;109436;-88
2021/07/14 02:47:42;;;;;;;4.90;3.22;;;18.60;99.90;;;19.16;100.00;99907.25;3484384;22;107305;31
2021/07/14 02:50:47;;;;;;;3.35;3.08;;;18.50;99.90;;;19.19;100.00;99911.38;3410878;22;107461;-84
2021/07/14 02:53:29;;;;;;;4.22;3.13;;;18.60;99.90;;;19.19;100.00;99917.63;3400064;22;105730;-89
2021/07/14 02:56:36;;;;;;;5.43;2.75;;;18.60;99.90;;;19.24;100.00;99920.50;3567185;22;109455;-85
2021/07/14 02:59:14;;;;;;;3.75;3.10;;;18.60;99.90;;;19.10;100.00;99921.69;3407145;22;108191;-84
2021/07/14 03:01:44;;;;;;;4.05;3.25;;;18.60;99.90;;;19.11;100.00;99909.78;3615157;22;104475;-86
2021/07/14 03:04:13;;;;;;;3.67;2.88;;;18.20;99.90;;;19.10;100.00;99907.28;3548971;39;103423;-84
2021/07/14 03:07:21;;;;;;;5.82;2.78;;;18.60;99.90;;;19.15;100.00;99907.47;3605221;22;107803;31
2021/07/14 03:12:22;;;;;;;3.63;3.03;;;18.60;99.90;;;19.09;100.00;99921.91;3201264;22;106936;31
2021/07/14 03:15:04;;;;;;;4.75;3.45;;;19.70;99.90;;;19.06;100.00;99925.88;3320594;22;108131;-87
2021/07/14 03:17:38;;;;;;;5.65;3.30;;;18.60;99.90;;;19.07;100.00;99924.84;3103265;22;107088;31
2021/07/14 03:20:09;;;;;;;8.77;3.17;;;18.60;99.90;;;19.08;100.00;99931.91;3546247;39;102380;-88
2021/07/14 03:22:38;;;;;;;5.55;3.22;;;18.60;99.90;;;19.14;100.00;99925.63;3739848;22;105842;-88
2021/07/14 03:25:07;;;;;;;7.70;3.17;;;19.20;99.90;;;19.13;100.00;99912.28;3345796;22;107307;-88
2021/07/14 03:28:15;;;;;;;4.13;3.22;;;18.60;99.90;;;19.13;100.00;99912.28;3199815;22;107327;-88
2021/07/14 03:31:29;;;;;;;5.70;3.47;;;18.50;99.90;;;19.12;100.00;99906.03;3561120;22;106125;-83
2021/07/14 03:34:41;;;;;;;4.32;3.38;;;19.30;99.90;;;19.12;100.00;99906.03;3577160;39;100344;-83
2021/07/14 03:40:30;;;;;;;6.00;3.45;;;18.50;99.90;;;19.17;100.00;99925.16;3540550;39;103153;-87
2021/07/14 03:43:44;;;;;;;4.30;3.03;;;18.60;99.90;;;19.19;100.00;99914.91;3590205;22;103265;-83
2021/07/14 03:46:58;;;;;;;3.67;2.92;;;19.20;99.90;;;19.20;100.00;99913.88;3292707;22;107642;-88
2021/07/14 03:50:13;;;;;;;2.65;2.42;;;18.60;99.90;;;19.23;100.00;99905.28;3167549;22;107562;-89
2021/07/14 03:53:29;;;;;;;5.18;3.22;;;18.60;99.90;;;19.23;100.00;99897.16;3465838;22;106397;-88
2021/07/14 03:56:06;;;;;;;4.60;2.60;;;18.60;99.90;;;19.32;100.00;99889.53;3624699;22;103919;-84
2021/07/14 03:58:34;;;;;;;4.30;2.83;;;18.60;99.90;;;19.37;100.00;99900.56;3646595;22;104264;-89
2021/07/14 04:01:04;;;;;;;5.72;3.03;;;18.60;99.90;;;19.31;100.00;99905.00;3439398;22;105782;-88
2021/07/14 04:03:32;;;;;;;4.28;2.67;;;19.60;99.90;;;19.29;100.00;99904.38;3588442;39;99978;-83
2021/07/14 04:06:02;;;;;;;2.92;2.60;;;19.70;99.90;;;19.36;100.00;99896.19;3667506;22;101241;31
2021/07/14 04:08:38;;;;;;;2.53;2.33;;;18.70;99.90;;;19.42;100.00;99886.31;3269408;22;106108;-83
2021/07/14 04:11:06;;;;;;;4.38;2.47;;;18.70;99.90;;;19.34;100.00;99866.56;2956444;22;106831;-88
2021/07/14 04:13:35;;;;;;;4.35;2.25;;;19.70;99.90;;;19.45;100.00;99858.72;3559612;39;102692;-84
2021/07/14 04:16:03;;;;;;;4.05;2.90;;;19.80;99.90;;;19.44;100.00;99855.19;3549754;39;102126;-85
2021/07/14 04:18:30;;;;;;;2.40;1.95;;;18.80;99.90;;;19.44;100.00;99852.47;3095967;22;106019;-88
2021/07/14 04:21:33;;;;;;;3.90;2.80;;;18.60;99.90;;;19.44;100.00;99847.06;3616143;22;103059;-84
2021/07/14 04:24:45;;;;;;;2.08;1.98;;;18.80;99.90;;;19.52;100.00;99843.25;3612967;22;106546;-83
2021/07/14 04:27:21;;;;;;;2.22;2.00;;;18.80;99.90;;;19.57;100.00;99846.09;3030781;22;107636;-83
2021/07/14 04:29:49;;;;;;;2.30;2.10;;;19.80;99.90;;;19.61;100.00;99845.44;3553069;39;100211;-82
2021/07/14 04:32:16;;;;;;;3.17;2.42;;;19.20;99.90;;;19.48;100.00;99844.72;3253190;22;105530;-83
2021/07/14 04:35:20;;;;;;;2.83;1.80;;;18.90;99.90;;;19.49;100.00;99841.81;3691859;22;106624;31
2021/07/14 04:37:56;;;;;;;3.80;2.88;;;18.90;99.90;;;19.45;100.00;99847.88;2928524;22;107524;-87
2021/07/14 04:40:25;;;;;;;2.83;2.33;;;19.90;99.90;;;19.45;100.00;99842.44;3630791;22;102008;31
2021/07/14 04:43:27;;;;;;;2.78;2.25;;;19.90;99.90;;;19.46;100.00;99844.13;3443098;22;107053;-88
2021/07/14 04:46:06;;;;;;;1.92;1.67;;;20.00;99.90;;;19.63;100.00;99846.03;3160674;22;107128;-88
2021/07/14 04:48:33;;;;;;;3.17;2.10;;;18.70;99.90;;;19.70;100.00;99841.34;3556728;39;102315;-84
2021/07/14 04:51:00;;;;;;;3.83;2.33;;;19.10;99.90;;;19.64;100.00;99830.56;3459555;22;107363;-92
2021/07/14 04:53:27;;;;;;;6.35;3.10;;;19.10;99.90;;;19.67;100.00;99830.09;3593470;22;100509;-87
2021/07/14 04:55:54;;;;;;;7.43;2.35;;;20.00;99.90;;;19.78;100.00;99823.91;2779182;22;110158;-83
2021/07/14 04:58:22;;;;;;;3.15;2.22;;;19.30;99.90;;;19.93;100.00;99818.06;3556322;22;105859;31
2021/07/14 05:00:49;;;;;;;2.45;2.20;;;19.30;99.90;;;19.94;100.00;99822.44;3516422;22;106395;-85
2021/07/14 05:03:18;;;;;;;3.13;2.03;;;17.80;99.90;;;19.96;100.00;99815.72;3569672;39;100003;-83
2021/07/14 05:05:45;;;;;;;3.85;1.88;;;20.50;99.90;;;19.90;100.00;99821.25;3641633;22;107063;-84
2021/07/14 05:08:49;;;;;;;3.58;2.22;;;19.50;99.90;;;19.95;100.00;99840.38;3594819;22;104223;-83
2021/07/14 05:11:24;;;;;;;2.28;1.95;;;19.60;99.90;;;19.96;100.00;99839.34;3579842;22;106054;-84
2021/07/14 05:13:51;;;;;;;4.20;1.92;;;19.70;99.90;;;20.03;100.00;99856.34;3429268;22;106325;-82
2021/07/14 05:16:18;;;;;;;3.10;2.47;;;19.70;99.90;;;20.04;100.00;99858.00;3686673;22;104917;-81
2021/07/14 05:18:47;;;;;;;3.90;2.45;;;20.80;99.90;;;20.09;100.00;99861.72;3630412;22;102358;-84
2021/07/14 05:21:14;;;;;;;1.70;1.48;;;20.80;99.90;;;20.14;100.00;99862.91;3622480;22;105979;-85
2021/07/14 05:23:41;;;;;;;2.03;1.60;;;20.80;99.90;;;20.09;100.00;99874.47;3569547;39;100151;-82
2021/07/14 05:26:08;;;;;;;1.95;1.80;;;20.50;99.90;;;20.08;100.00;99868.19;3680418;22;103166;-87
2021/07/14 05:28:35;;;;;;;3.03;1.58;;;21.00;99.90;;;20.20;100.00;99870.94;3565020;39;103623;-82
2021/07/14 05:31:02;;;;;;;2.40;1.75;;;19.90;99.90;;;20.24;100.00;99871.31;3550255;39;100848;-82
2021/07/14 05:33:29;;;;;;;1.85;1.60;;;21.10;99.90;;;20.09;100.00;99878.00;3602729;22;105198;-85
2021/07/14 05:35:58;;;;;;;1.92;1.55;;;20.00;99.90;;;20.19;100.00;99880.16;3671184;22;105278;-87
2021/07/14 05:38:25;;;;;;;7.57;2.03;;;19.60;99.90;;;20.19;100.00;99882.03;3581008;22;104392;-87
2021/07/14 05:40:53;;;;;;;5.57;1.63;;;20.00;99.90;;;20.28;100.00;99889.63;3611103;22;101889;-82
2021/07/14 05:43:57;;;;;;;2.58;1.60;;;20.60;99.90;;;20.35;100.00;99895.00;3682363;22;104352;-83
2021/07/14 05:47:09;;;;;;;2.03;1.83;;;20.10;99.90;;;20.47;100.00;99908.66;3572602;39;103580;-81
2021/07/14 05:50:20;;;;;;;2.58;1.58;;;20.20;99.90;;;20.86;100.00;99897.16;3557180;39;101555;-82
2021/07/14 05:53:34;;;;;;;2.80;1.70;;;20.30;99.90;;;21.23;100.00;99880.66;3566857;39;100268;-86
2021/07/14 05:56:46;;;;;;;3.17;1.75;;;20.70;99.90;;;21.32;100.00;99868.31;3558112;39;100282;-83
2021/07/14 05:59:58;;;;;;;2.40;1.48;;;20.60;99.90;;;21.59;100.00;99842.25;3555790;39;101351;-81
2021/07/14 06:03:08;;;;;;;3.70;2.25;;;21.00;99.90;;;21.13;100.00;99829.53;3556413;39;100705;-82
2021/07/14 06:06:20;;;;;;;1.88;1.50;;;21.00;99.90;;;21.61;100.00;99825.69;3583102;22;103449;-80
2021/07/14 06:09:33;;;;;;;1.75;1.52;;;21.00;99.90;;;21.97;100.00;99805.41;3558522;39;99931;-82
2021/07/14 06:12:45;;;;;;;1.80;1.40;;;21.30;99.90;;;21.99;100.00;99768.72;3563159;39;101439;-81
2021/07/14 06:15:57;;;;;;;1.38;1.27;;;21.30;99.90;;;21.93;100.00;99742.41;3555877;39;103187;-83
2021/07/14 06:19:09;;;;;;;1.40;1.30;;;21.50;99.90;;;21.88;100.00;99729.53;3558950;39;100570;-83
2021/07/14 06:22:21;;;;;;;2.30;1.05;;;21.60;99.90;;;21.80;100.00;99718.22;3552154;39;99940;-82
2021/07/14 06:25:34;;;;;;;1.80;1.30;;;21.70;99.90;;;21.26;100.00;99706.03;3557782;39;102182;-81
2021/07/14 06:28:46;;;;;;;1.80;1.63;;;21.80;99.90;;;21.27;100.00;99700.31;3554158;39;101056;-80
2021/07/14 06:31:58;;;;;;;1.08;0.98;;;21.80;99.90;;;21.41;100.00;99693.53;3556284;39;100521;-84
2021/07/14 06:35:09;;;;;;;1.08;1.00;;;22.40;99.90;;;21.37;100.00;99675.22;3547775;39;100113;-81
2021/07/14 06:38:21;;;;;;;1.10;1.00;;;22.50;99.90;;;21.33;100.00;99666.72;3569441;39;99825;-81
2021/07/14 06:41:34;;;;;;;1.17;1.08;;;22.10;99.90;;;21.56;100.00;99660.34;3542154;39;101010;-84
2021/07/14 06:44:46;;;;;;;1.25;0.93;;;21.60;99.90;;;21.45;100.00;99675.66;3544663;39;100425;-83
2021/07/14 06:47:57;;;;;;;1.65;1.10;;;22.10;99.90;;;21.39;100.00;99694.84;3541760;39;99863;-84
2021/07/14 06:51:09;;;;;;;1.38;1.15;;;21.70;99.90;;;21.20;100.00;99740.47;3544787;39;101115;-81
2021/07/14 06:54:21;;;;;;;1.58;1.48;;;21.70;99.90;;;20.99;100.00;99766.38;3546403;39;101222;-83
2021/07/14 06:57:35;;;;;;;2.17;1.40;;;21.60;99.90;;;20.99;100.00;99779.97;3550413;39;100562;-82
2021/07/14 07:00:47;;;;;;;2.78;1.65;;;21.90;99.90;;;20.98;100.00;99782.94;3539964;39;100163;-85
2021/07/14 07:03:59;;;;;;;2.13;1.58;;;21.50;99.90;;;20.93;100.00;99810.84;3555469;39;101895;-82
2021/07/14 07:07:11;;;;;;;1.98;1.50;;;21.40;99.90;;;21.03;100.00;99813.78;3548270;39;100963;-81
2021/07/14 07:10:24;;;;;;;1.40;1.15;;;21.50;99.90;;;21.01;100.00;99812.38;3536766;39;102595;-83
2021/07/14 07:13:37;;;;;;;1.92;1.10;;;21.50;99.90;;;21.01;100.00;99820.53;3549864;39;100191;-83
2021/07/14 07:16:49;;;;;;;2.35;1.60;;;21.40;99.90;;;21.17;100.00;99836.94;3541092;39;101930;-83
2021/07/14 07:20:00;;;;;;;1.30;0.80;;;21.40;99.90;;;21.16;100.00;99846.19;3550110;39;101292;-84
2021/07/14 07:23:13;;;;;;;1.25;1.15;;;21.40;99.90;;;21.22;100.00;99849.88;3542161;39;101476;-84
2021/07/14 07:26:25;;;;;;;3.70;0.88;;;21.50;99.90;;;21.48;100.00;99841.22;3550855;39;100200;-81
2021/07/14 07:29:39;;;;;;;1.90;1.55;;;21.50;99.90;;;21.25;100.00;99848.59;3540117;39;103242;-81
2021/07/14 07:32:51;;;;;;;1.70;1.33;;;21.80;99.90;;;21.14;100.00;99850.22;3535479;39;103645;-81
2021/07/14 07:36:03;;;;;;;1.10;1.00;;;21.60;99.90;;;21.27;100.00;99839.09;3537419;39;102096;-81
2021/07/14 07:39:15;;;;;;;1.50;1.20;;;21.60;99.90;;;21.40;100.00;99833.41;3564148;39;100711;-85
2021/07/14 07:42:27;;;;;;;1.10;1.00;;;21.70;99.90;;;21.45;100.00;99824.53;3551799;39;102195;-82
2021/07/14 07:45:41;;;;;;;2.30;1.40;;;22.10;99.90;;;21.46;100.00;99813.41;3555958;39;100453;-84
2021/07/14 07:48:53;;;;;;;1.55;1.13;;;21.70;99.90;;;21.55;100.00;99810.28;3551580;39;100757;-82
2021/07/14 07:52:06;;;;;;;1.30;1.20;;;21.80;99.90;;;21.46;100.00;99807.97;3553411;39;100826;-82
2021/07/14 07:55:18;;;;;;;1.25;1.05;;;22.70;99.90;;;21.51;100.00;99802.59;3551581;39;100988;-82
2021/07/14 07:58:30;;;;;;;1.30;1.15;;;21.90;99.90;;;21.70;100.00;99808.72;3552981;39;101245;-82
2021/07/14 08:01:44;;;;;;;1.25;1.15;;;21.90;99.90;;;21.43;100.00;99803.00;3551660;39;100697;-83
2021/07/14 08:04:56;;;;;;;1.88;1.50;;;21.90;99.90;;;21.33;100.00;99808.22;3547156;39;100234;-84
2021/07/14 08:08:07;;;;;;;1.42;1.27;;;21.90;99.90;;;21.43;100.00;99805.72;3550438;39;101178;-81
2021/07/14 08:11:19;;;;;;;1.10;0.90;;;22.00;99.90;;;21.49;100.00;99793.88;3550770;39;101309;-84
2021/07/14 08:14:32;;;;;;;2.60;1.30;;;22.00;99.90;;;21.37;100.00;99792.25;3541789;39;102420;-85
2021/07/14 08:17:45;;;;;;;2.20;1.35;;;22.00;99.90;;;21.48;100.00;99786.78;3553056;39;101095;-83
2021/07/14 08:20:57;;;;;;;1.75;1.15;;;22.50;99.90;;;21.71;100.00;99783.13;3550874;39;101097;-82
2021/07/14 08:24:09;;;;;;;1.25;1.00;;;22.30;99.90;;;21.40;100.00;99776.25;3528910;39;103318;-83
2021/07/14 08:27:24;;;;;;;1.33;1.23;;;21.10;99.90;;;21.66;100.00;99780.31;3546752;39;101637;-84
2021/07/14 08:30:37;;;;;;;5.03;1.60;;;22.20;99.90;;;21.53;100.00;99805.09;3557244;39;100043;-82
2021/07/14 08:33:50;;;;;;;1.33;1.10;;;21.30;99.90;;;21.61;100.00;99831.94;3549958;39;101211;-83
2021/07/14 08:37:02;;;;;;;2.95;1.60;;;22.20;99.90;;;21.26;100.00;99855.69;3546642;39;101151;-85
2021/07/14 08:40:16;;;;;;;1.67;1.20;;;22.50;99.90;;;21.33;100.00;99876.25;3550790;39;100553;-84
2021/07/14 08:43:44;;;;;;;2.28;1.48;;;22.10;99.90;;;21.24;100.00;99871.41;3549119;39;100403;-84
2021/07/14 08:46:57;;;;;;;2.33;1.48;;;22.30;99.90;;;21.26;100.00;99900.06;3541148;39;103053;-82
2021/07/14 08:50:11;;;;;;;2.08;1.50;;;21.80;99.90;;;21.58;100.00;99902.38;3549696;39;101220;-82
2021/07/14 08:53:25;;;;;;;2.25;1.33;;;21.80;99.90;;;21.38;100.00;99897.31;3540113;39;102734;-85
2021/07/14 08:56:37;;;;;;;2.75;1.60;;;21.80;99.90;;;21.38;100.00;99906.31;3540418;39;100204;-82
2021/07/14 08:59:50;;;;;;;1.50;1.35;;;21.80;99.90;;;21.24;100.00;99895.91;3549527;39;102755;-85
2021/07/14 09:03:03;;;;;;;2.50;2.30;;;21.90;99.90;;;21.30;100.00;99886.78;3551603;39;101424;-80
2021/07/14 09:06:17;;;;;;;3.90;3.40;;;22.00;99.90;;;21.27;100.00;99885.34;3538705;39;102475;-83
2021/07/14 09:09:28;;;;;;;4.35;3.33;;;22.10;99.90;;;21.61;100.00;99869.25;3548426;39;100056;-82
2021/07/14 09:12:52;;;;;;;5.20;3.55;;;22.20;99.90;;;22.34;100.00;99865.78;3548405;39;101195;-84
2021/07/14 09:16:07;;;;;;;7.60;3.63;;;22.40;99.90;;;22.76;100.00;99841.72;3556120;39;101415;-82
2021/07/14 09:19:25;;;;;;;6.47;3.15;;;22.70;99.90;;;23.68;100.00;99801.00;3550664;39;100744;-81
2021/07/14 09:22:47;;;;;;;5.63;2.90;;;23.10;99.90;;;23.37;100.00;99758.81;3549256;39;99932;-85
2021/07/14 09:26:06;;;;;;;3.65;2.22;;;23.50;99.90;;;23.72;100.00;99757.63;3543511;39;100755;-84
2021/07/14 09:29:32;;;;;;;2.33;1.88;;;24.40;99.90;;;22.31;100.00;99765.44;3527507;39;103282;-81
2021/07/14 09:32:50;;;;;;;7.95;2.15;;;24.30;99.90;;;23.25;100.00;99777.22;3543090;39;100654;-82
2021/07/14 09:36:04;;;;;;;4.20;2.22;;;24.30;99.90;;;22.87;100.00;99770.69;3566579;39;99289;-84
2021/07/14 09:39:22;;;;;;;2.53;1.65;;;24.60;99.90;;;22.98;100.00;99768.16;3561295;39;100020;-82
2021/07/14 09:42:38;;;;;;;2.38;2.00;;;24.60;99.90;;;23.51;100.00;99754.66;3555865;39;101266;-85
2021/07/14 09:46:10;;;;;;;4.72;2.80;;;24.70;99.90;;;23.22;100.00;99756.75;3552404;39;101902;-81
2021/07/14 09:49:31;;;;;;;3.10;2.45;;;24.90;99.90;;;22.91;100.00;99741.03;3537288;39;100077;-84
2021/07/14 09:52:44;;;;;;;2.40;2.10;;;25.10;99.90;;;23.00;100.00;99731.31;3541474;39;102537;-85
2021/07/14 09:56:01;;;;;;;2.30;1.92;;;25.20;99.90;;;22.95;100.00;99730.44;3548190;39;103390;-83
2021/07/14 09:59:19;;;;;;;2.83;2.05;;;25.20;99.90;;;23.64;100.00;99710.56;3554425;39;100453;-82
2021/07/14 10:02:33;;;;;;;5.25;1.75;;;25.40;99.90;;;24.26;100.00;99695.56;3551023;39;99969;-84
2021/07/14 10:05:54;;;;;;;2.15;1.65;;;25.50;99.90;;;24.59;100.00;99675.28;3536332;39;103018;-85
2021/07/14 10:09:11;;;;;;;2.08;1.83;;;26.10;99.90;;;24.83;100.00;99671.03;3556430;39;100990;-82
2021/07/14 10:12:59;;;;;;;7.28;1.70;;;26.60;99.90;;;24.63;100.00;99658.06;3551533;39;100783;-82
2021/07/14 10:16:26;;;;;;;1.30;1.20;;;26.50;99.90;;;24.45;100.00;99657.69;3536823;39;100318;-82
2021/07/14 10:19:39;;;;;;;3.17;1.77;;;26.70;99.90;;;24.51;100.00;99638.31;3542364;39;103357;-83
2021/07/14 10:22:50;;;;;;;1.90;1.52;;;26.80;99.90;;;24.72;100.00;99632.97;3550655;39;101149;-82
2021/07/14 10:26:04;;;;;;;1.95;1.70;;;26.90;99.90;;;24.57;100.00;99650.13;3554648;39;100263;-82
2021/07/14 10:29:18;;;;;;;2.60;2.13;;;27.00;99.90;;;23.52;100.00;99703.59;3546199;39;100106;-81
2021/07/14 10:32:30;;;;;;;2.58;1.90;;;27.30;99.90;;;23.38;100.00;99724.16;3557998;39;102472;-85
2021/07/14 10:35:46;;;;;;;3.08;1.77;;;27.10;99.90;;;24.06;100.00;99718.06;3561405;39;100043;-84
2021/07/14 10:39:05;;;;;;;2.00;1.67;;;27.10;99.90;;;24.25;100.00;99713.88;3551494;39;100492;-82
2021/07/14 10:42:17;;;;;;;2.08;1.88;;;27.40;99.90;;;23.95;100.00;99698.03;3545330;39;99969;-81
2021/07/14 10:45:33;;;;;;;3.33;1.90;;;27.20;97.60;;;24.06;100.00;99698.09;3536877;39;103023;-80
2021/07/14 10:48:46;;;;;;;7.43;2.15;;;27.30;96.10;;;24.88;100.00;99689.38;3546796;39;102044;-83
2021/07/14 10:51:59;;;;;;;2.13;1.70;;;27.30;95.60;;;24.85;100.00;99687.19;3546166;39;101125;-83
2021/07/14 10:55:12;;;;;;;3.33;2.17;;;27.40;95.50;;;24.04;100.00;99686.59;3547608;39;101401;-81
2021/07/14 10:58:25;;;;;;;2.95;2.30;;;27.50;93.70;;;24.09;100.00;99667.53;3536849;39;102466;-82
2021/07/14 11:02:02;;;;;;;2.80;1.88;;;27.50;92.80;;;24.52;100.00;99650.06;3550610;39;103458;-81
2021/07/14 11:05:39;;;;;;;2.17;2.00;;;27.30;93.90;;;23.62;100.00;99681.84;3523942;39;100618;-81
2021/07/14 11:09:11;;;;;;;2.13;1.85;;;27.30;93.30;;;23.47;100.00;99734.38;3535911;39;100265;-82
2021/07/14 11:12:38;;;;;;;1.90;1.42;;;27.10;92.60;;;23.63;100.00;99749.88;3542047;39;101460;-81
2021/07/14 11:15:55;;;;;;;2.70;2.20;;;27.60;94.20;;;24.16;100.00;99739.19;3533827;39;103406;-84
2021/07/14 11:19:18;;;;;;;2.03;1.83;;;26.50;95.00;;;23.76;100.00;99734.97;3535436;39;100535;-83
2021/07/14 11:22:45;;;;;;;4.88;2.33;;;26.40;94.30;;;24.27;100.00;99736.31;3536352;39;101122;-80
2021/07/14 11:26:07;;;;;;;1.63;1.42;;;26.30;95.60;;;24.12;100.00;99717.00;3535694;39;100843;-81
2021/07/14 11:29:48;;;;;;;2.20;1.40;;;26.40;92.50;;;24.24;100.00;99714.94;3526070;39;101990;-82
2021/07/14 11:33:14;;;;;;;2.00;1.50;;;26.50;92.80;;;23.91;100.00;99704.25;3527865;39;100428;-81
2021/07/14 11:36:57;;;;;;;2.13;1.58;;;26.40;91.70;;;24.44;100.00;99694.34;3567291;39;99906;-82
2021/07/14 11:40:14;;;;;;;2.15;1.90;;;27.10;92.70;;;24.34;100.00;99692.34;3543461;39;100659;-85
2021/07/14 11:43:41;;;;;;;1.80;1.17;;;26.20;91.50;;;24.41;100.00;99694.84;3546947;39;101260;-82
2021/07/14 11:46:54;;;;;;;3.83;1.80;;;26.20;90.90;;;24.92;100.00;99696.81;3545967;39;102303;-81
2021/07/14 11:50:10;;;;;;;1.45;1.10;;;26.50;91.10;;;24.86;100.00;99691.56;3540502;39;100230;-83
2021/07/14 11:53:52;;;;;;;3.15;1.35;;;26.70;89.50;;;24.60;100.00;99687.88;3537718;39;103509;-81
2021/07/14 11:57:17;;;;;;;5.53;1.77;;;26.90;85.10;;;24.81;100.00;99691.56;3547799;39;101098;-81
2021/07/14 12:00:44;;;;;;;5.38;1.95;;;27.10;86.50;;;24.96;100.00;99670.59;3548579;39;100758;-84
2021/07/14 12:04:15;;;;;;;2.10;1.50;;;27.20;87.10;;;24.68;100.00;99671.78;3547513;39;100059;-83
2021/07/14 12:07:51;;;;;;;2.08;1.80;;;27.10;87.00;;;25.30;100.00;99675.63;3529519;39;103195;-80
2021/07/14 12:11:14;;;;;;;2.85;2.03;;;27.10;88.90;;;25.11;100.00;99675.28;3539050;39;101525;-83
2021/07/14 12:14:28;;;;;;;1.70;1.60;;;27.30;86.60;;;24.75;100.00;99676.19;3545818;39;102394;-83
2021/07/14 12:17:42;;;;;;;2.00;1.65;;;27.50;81.10;;;25.01;100.00;99677.97;3543820;39;100169;-81
2021/07/14 12:20:57;;;;;;;2.60;1.98;;;27.80;82.00;;;24.84;100.00;99678.16;3547605;39;102932;-85
2021/07/14 12:24:08;;;;;;;2.08;1.75;;;27.40;79.50;;;25.65;100.00;99673.00;3551390;39;101207;-83
2021/07/14 12:27:29;;;;;;;1.98;1.58;;;27.30;81.60;;;25.34;100.00;99671.28;3543420;39;102801;-80
2021/07/14 12:30:43;;;;;;;1.75;1.65;;;27.40;81.70;;;25.00;100.00;99670.84;3558876;39;100216;-82
2021/07/14 12:33:59;;;;;;;2.08;1.88;;;27.50;80.00;;;25.23;100.00;99670.41;3547398;39;101941;-84
2021/07/14 12:37:13;;;;;;;2.05;1.60;;;27.70;81.60;;;24.77;100.00;99680.31;3544358;39;101153;-84